createdAt,value
2019-04-21T00:00:24.199Z,12.94
2019-04-21T00:01:22.553Z,12.86
2019-04-21T00:02:29.833Z,12.90
2019-04-21T00:03:27.552Z,12.95
2019-04-21T00:04:33.156Z,12.90
2019-04-21T00:05:38.550Z,12.94
2019-04-21T00:06:41.105Z,12.87
2019-04-21T00:07:45.363Z,12.95
2019-04-21T00:08:41.776Z,12.93
2019-04-21T00:09:48.322Z,12.87
2019-04-21T00:10:47.928Z,12.91
2019-04-21T00:11:40.852Z,12.85
2019-04-21T00:12:41.885Z,12.78
2019-04-21T00:13:41.762Z,12.62
2019-04-21T00:14:35.801Z,12.61
2019-04-21T00:15:33.152Z,12.55
2019-04-21T00:16:32.120Z,12.47
2019-04-21T00:17:24.965Z,12.49
2019-04-21T00:18:23.371Z,12.47
2019-04-21T00:19:28.091Z,12.35
2019-04-21T00:20:30.966Z,12.25
2019-04-21T00:21:32.350Z,12.22
2019-04-21T00:22:38.077Z,12.21
2019-04-21T00:23:41.274Z,12.04
2019-04-21T00:24:37.487Z,11.90
2019-04-21T00:25:38.847Z,11.83
2019-04-21T00:26:36.394Z,11.68
2019-04-21T00:27:38.613Z,11.63
2019-04-21T00:28:42.071Z,11.65
2019-04-21T00:30:44.223Z,11.52
2019-04-21T00:31:38.146Z,11.51
2019-04-21T00:32:38.144Z,11.57
2019-04-21T00:33:28.243Z,11.48
2019-04-21T00:34:23.727Z,11.45
2019-04-21T00:35:25.800Z,11.33
2019-04-21T00:36:27.829Z,11.29
2019-04-21T00:37:44.531Z,11.18
2019-04-21T00:38:49.275Z,11.18
2019-04-21T00:40:41.436Z,11.19
2019-04-21T00:41:43.907Z,11.08
2019-04-21T00:42:41.568Z,11.02
2019-04-21T00:43:37.270Z,10.94
2019-04-21T00:44:35.851Z,10.92
2019-04-21T00:45:34.907Z,10.90
2019-04-21T00:46:38.740Z,10.87
2019-04-21T00:47:46.156Z,10.93
2019-04-21T00:48:41.304Z,10.87
2019-04-21T00:49:35.980Z,10.89
2019-04-21T00:50:53.212Z,10.99
2019-04-21T00:52:51.284Z,10.97
2019-04-21T00:53:51.909Z,10.90
2019-04-21T00:54:49.766Z,10.93
2019-04-21T00:55:51.615Z,10.87
2019-04-21T00:56:49.612Z,10.92
2019-04-21T00:57:51.354Z,10.90
2019-04-21T00:58:47.736Z,10.72
2019-04-21T00:59:45.441Z,10.69
2019-04-21T01:00:46.444Z,10.74
2019-04-21T01:01:46.248Z,10.76
2019-04-21T01:02:52.892Z,10.79
2019-04-21T01:03:45.696Z,10.79
2019-04-21T01:04:43.023Z,10.72
2019-04-21T01:05:48.367Z,10.84
2019-04-21T01:06:43.169Z,10.81
2019-04-21T01:07:42.304Z,10.71
2019-04-21T01:08:44.106Z,10.76
2019-04-21T01:09:39.867Z,10.78
2019-04-21T01:10:37.399Z,10.84
2019-04-21T01:11:47.355Z,10.76
2019-04-21T01:12:44.493Z,10.71
2019-04-21T01:13:45.555Z,10.69
2019-04-21T01:14:49.658Z,10.84
2019-04-21T01:15:51.553Z,10.71
2019-04-21T01:16:49.798Z,10.71
2019-04-21T01:17:40.825Z,10.61
2019-04-21T01:18:44.023Z,10.61
2019-04-21T01:19:41.233Z,10.63
2019-04-21T01:20:22.684Z,10.46
2019-04-21T01:21:21.654Z,10.34
2019-04-21T01:22:21.622Z,10.26
2019-04-21T01:23:21.628Z,10.22
2019-04-21T01:24:28.598Z,10.26
2019-04-21T01:25:30.186Z,10.20
2019-04-21T01:26:33.798Z,10.07
2019-04-21T01:27:42.237Z,10.09
2019-04-21T01:28:43.888Z,9.99
2019-04-21T01:30:43.095Z,9.99
2019-04-21T01:31:36.300Z,10.04
2019-04-21T01:32:46.855Z,9.97
2019-04-21T01:33:49.016Z,9.89
2019-04-21T01:34:39.410Z,9.91
2019-04-21T01:35:44.228Z,9.92
2019-04-21T01:36:41.564Z,9.92
2019-04-21T01:37:43.823Z,9.98
2019-04-21T01:38:48.136Z,9.94
2019-04-21T01:39:51.511Z,10.01
2019-04-21T01:40:43.326Z,9.89
2019-04-21T01:41:45.060Z,9.89
2019-04-21T01:42:43.113Z,9.89
2019-04-21T01:43:43.868Z,9.89
2019-04-21T01:44:43.039Z,9.86
2019-04-21T01:45:38.585Z,9.98
2019-04-21T01:46:42.812Z,9.99
2019-04-21T01:47:40.653Z,10.04
2019-04-21T01:48:34.478Z,9.92
2019-04-21T01:49:29.552Z,10.01
2019-04-21T01:50:42.673Z,9.91
2019-04-21T01:51:45.414Z,9.91
2019-04-21T01:52:54.233Z,9.95
2019-04-21T01:53:45.681Z,9.91
2019-04-21T01:54:45.525Z,9.86
2019-04-21T01:55:46.727Z,9.79
2019-04-21T01:56:38.679Z,9.80
2019-04-21T01:57:37.525Z,9.87
2019-04-21T01:58:34.091Z,9.89
2019-04-21T01:59:34.930Z,9.87
2019-04-21T02:00:41.117Z,9.87
2019-04-21T02:01:39.202Z,9.89
2019-04-21T02:02:44.362Z,9.83
2019-04-21T02:05:00.744Z,9.83
2019-04-21T02:05:43.956Z,9.83
2019-04-21T02:06:45.585Z,9.64
2019-04-21T02:07:47.417Z,9.69
2019-04-21T02:08:38.884Z,9.64
2019-04-21T02:09:46.429Z,9.47
2019-04-21T02:10:46.236Z,9.48
2019-04-21T02:11:43.425Z,9.44
2019-04-21T02:12:48.329Z,9.46
2019-04-21T02:13:50.303Z,9.46
2019-04-21T02:14:45.846Z,9.41
2019-04-21T02:15:46.710Z,9.51
2019-04-21T02:16:40.453Z,9.51
2019-04-21T02:17:45.881Z,9.56
2019-04-21T02:18:41.566Z,9.55
2019-04-21T02:19:36.351Z,9.54
2019-04-21T02:20:34.493Z,9.54
2019-04-21T02:21:41.028Z,9.56
2019-04-21T02:23:01.935Z,9.62
2019-04-21T02:23:50.321Z,9.48
2019-04-21T02:24:51.633Z,9.55
2019-04-21T02:25:44.221Z,9.54
2019-04-21T02:26:44.385Z,9.59
2019-04-21T02:27:42.969Z,9.55
2019-04-21T02:29:47.138Z,9.44
2019-04-21T02:31:00.676Z,9.47
2019-04-21T02:32:00.404Z,9.44
2019-04-21T02:33:55.909Z,9.39
2019-04-21T02:39:00.263Z,9.41
2019-04-21T02:39:57.389Z,9.34
2019-04-21T02:42:05.484Z,9.23
2019-04-21T02:42:56.004Z,9.21
2019-04-21T02:44:51.733Z,9.11
2019-04-21T02:45:56.330Z,9.22
2019-04-21T02:47:59.209Z,9.22
2019-04-21T02:48:56.430Z,9.10
2019-04-21T02:50:47.290Z,9.13
2019-04-21T02:51:54.374Z,9.23
2019-04-21T02:52:58.131Z,9.08
2019-04-21T02:54:11.931Z,9.13
2019-04-21T02:55:51.192Z,8.94
2019-04-21T02:57:01.361Z,8.85
2019-04-21T02:57:59.393Z,8.88
2019-04-21T02:59:59.573Z,8.89
2019-04-21T03:01:18.745Z,8.71
2019-04-21T03:01:59.225Z,8.71
2019-04-21T03:03:16.008Z,8.69
2019-04-21T03:03:52.919Z,8.61
2019-04-21T03:04:55.289Z,8.56
2019-04-21T03:05:51.179Z,8.58
2019-04-21T03:06:56.382Z,8.55
2019-04-21T03:08:00.633Z,8.46
2019-04-21T03:09:03.433Z,8.44
2019-04-21T03:10:53.304Z,8.52
2019-04-21T03:12:01.553Z,8.53
2019-04-21T03:12:45.884Z,8.66
2019-04-21T03:14:01.130Z,8.71
2019-04-21T03:16:42.563Z,8.71
2019-04-21T03:17:57.488Z,8.64
2019-04-21T03:19:06.670Z,8.74
2019-04-21T03:20:54.847Z,8.81
2019-04-21T03:21:57.480Z,8.76
2019-04-21T03:22:57.634Z,8.81
2019-04-21T03:25:50.320Z,8.89
2019-04-21T03:27:01.401Z,8.85
2019-04-21T03:28:00.787Z,8.87
2019-04-21T03:28:54.515Z,8.89
2019-04-21T03:29:57.099Z,8.91
2019-04-21T03:36:19.020Z,8.73
2019-04-21T03:38:51.071Z,8.60
2019-04-21T03:40:54.962Z,8.61
2019-04-21T03:41:59.758Z,8.55
2019-04-21T03:42:53.053Z,8.55
2019-04-21T03:43:54.740Z,8.64
2019-04-21T03:44:58.416Z,8.67
2019-04-21T03:47:02.188Z,8.66
2019-04-21T03:47:53.547Z,8.74
2019-04-21T03:48:51.840Z,8.74
2019-04-21T03:49:54.617Z,8.71
2019-04-21T03:50:56.217Z,8.73
2019-04-21T03:51:54.908Z,8.64
2019-04-21T03:52:53.324Z,8.70
2019-04-21T03:53:45.947Z,8.66
2019-04-21T03:54:54.126Z,8.69
2019-04-21T03:56:06.792Z,8.71
2019-04-21T03:57:11.398Z,8.71
2019-04-21T03:58:10.696Z,8.78
2019-04-21T03:59:55.334Z,8.85
2019-04-21T04:01:57.799Z,8.73
2019-04-21T04:02:55.259Z,8.71
2019-04-21T04:04:06.745Z,8.52
2019-04-21T04:04:53.568Z,8.67
2019-04-21T04:06:55.565Z,8.52
2019-04-21T04:08:09.443Z,8.53
2019-04-21T04:08:59.026Z,8.53
2019-04-21T04:09:52.360Z,8.45
2019-04-21T04:11:06.792Z,8.46
2019-04-21T04:12:05.094Z,8.49
2019-04-21T04:12:52.647Z,8.52
2019-04-21T04:13:56.006Z,8.42
2019-04-21T04:14:50.222Z,8.44
2019-04-21T04:16:59.403Z,8.44
2019-04-21T04:17:46.197Z,8.48
2019-04-21T04:19:46.701Z,8.53
2019-04-21T04:20:51.681Z,8.52
2019-04-21T04:21:58.513Z,8.52
2019-04-21T04:22:56.519Z,8.56
2019-04-21T04:23:51.365Z,8.60
2019-04-21T04:25:01.993Z,8.53
2019-04-21T04:25:53.678Z,8.60
2019-04-21T04:27:59.456Z,8.61
2019-04-21T04:28:54.657Z,8.73
2019-04-21T04:29:51.305Z,8.64
2019-04-21T04:31:43.965Z,8.74
2019-04-21T04:39:02.314Z,8.67
2019-04-21T04:40:05.970Z,8.73
2019-04-21T04:40:57.783Z,8.67
2019-04-21T04:42:04.935Z,8.73
2019-04-21T04:42:55.947Z,8.73
2019-04-21T04:43:54.639Z,8.67
2019-04-21T04:45:05.836Z,8.73
2019-04-21T04:45:55.764Z,8.87
2019-04-21T04:46:59.709Z,8.82
2019-04-21T04:47:49.946Z,8.79
2019-04-21T04:48:59.396Z,8.87
2019-04-21T04:49:54.973Z,9.00
2019-04-21T04:50:55.343Z,9.02
2019-04-21T04:52:45.703Z,9.16
2019-04-21T04:53:48.855Z,9.08
2019-04-21T04:54:55.870Z,9.13
2019-04-21T04:55:46.068Z,9.18
2019-04-21T04:57:03.229Z,9.22
2019-04-21T04:59:19.389Z,9.11
2019-04-21T04:59:53.964Z,9.14
2019-04-21T05:00:58.162Z,9.21
2019-04-21T05:03:48.945Z,9.41
2019-04-21T05:04:55.205Z,9.39
2019-04-21T05:05:55.617Z,9.41
2019-04-21T05:07:57.292Z,9.48
2019-04-21T05:09:11.335Z,9.64
2019-04-21T05:10:59.054Z,9.76
2019-04-21T05:12:47.855Z,9.80
2019-04-21T05:13:58.085Z,9.84
2019-04-21T05:15:53.713Z,9.97
2019-04-21T05:16:56.051Z,10.05
2019-04-21T05:18:56.015Z,10.20
2019-04-21T05:20:05.443Z,10.12
2019-04-21T05:20:58.709Z,10.23
2019-04-21T05:22:05.272Z,10.25
2019-04-21T05:22:45.901Z,10.25
2019-04-21T05:23:39.811Z,10.35
2019-04-21T05:24:38.972Z,10.25
2019-04-21T05:25:37.758Z,10.35
2019-04-21T05:26:38.981Z,10.42
2019-04-21T05:27:36.532Z,10.40
2019-04-21T05:28:32.700Z,10.42
2019-04-21T05:29:47.768Z,10.42
2019-04-21T05:30:47.641Z,10.53
2019-04-21T05:31:45.082Z,10.44
2019-04-21T05:32:48.809Z,10.56
2019-04-21T05:33:49.476Z,10.56
2019-04-21T05:34:35.948Z,10.64
2019-04-21T05:35:43.333Z,10.69
2019-04-21T05:37:36.931Z,10.78
2019-04-21T05:38:38.871Z,10.78
2019-04-21T05:39:36.227Z,10.89
2019-04-21T05:40:34.739Z,10.89
2019-04-21T05:41:31.378Z,10.87
2019-04-21T05:42:35.357Z,10.93
2019-04-21T05:43:43.780Z,11.04
2019-04-21T05:44:56.768Z,11.08
2019-04-21T05:45:42.281Z,11.17
2019-04-21T05:47:49.143Z,11.27
2019-04-21T05:48:39.715Z,11.45
2019-04-21T05:49:40.134Z,11.47
2019-04-21T05:50:38.061Z,11.43
2019-04-21T05:51:36.430Z,11.30
2019-04-21T05:52:34.084Z,11.19
2019-04-21T05:53:42.689Z,11.10
2019-04-21T05:55:44.544Z,11.11
2019-04-21T05:56:46.100Z,11.15
2019-04-21T05:57:43.159Z,11.22
2019-04-21T05:58:40.623Z,11.25
2019-04-21T05:59:43.616Z,11.25
2019-04-21T06:00:59.153Z,11.43
2019-04-21T06:02:07.235Z,11.50
2019-04-21T06:02:43.799Z,11.50
2019-04-21T06:03:44.899Z,11.62
2019-04-21T06:05:03.054Z,11.77
2019-04-21T06:05:53.429Z,11.88
2019-04-21T06:06:55.410Z,11.95
2019-04-21T06:07:41.483Z,11.94
2019-04-21T06:09:48.889Z,12.15
2019-04-21T06:10:48.814Z,12.15
2019-04-21T06:11:42.446Z,12.20
2019-04-21T06:12:44.960Z,12.29
2019-04-21T06:13:53.031Z,12.24
2019-04-21T06:14:44.912Z,12.25
2019-04-21T06:15:42.914Z,12.32
2019-04-21T06:16:53.524Z,12.24
2019-04-21T06:17:44.467Z,12.29
2019-04-21T06:18:48.724Z,12.20
2019-04-21T06:19:52.680Z,12.28
2019-04-21T06:20:44.492Z,12.29
2019-04-21T06:21:38.549Z,12.35
2019-04-21T06:22:36.134Z,12.54
2019-04-21T06:23:41.986Z,12.54
2019-04-21T06:25:06.923Z,12.53
2019-04-21T06:25:54.544Z,12.58
2019-04-21T06:26:54.813Z,12.62
2019-04-21T06:27:40.763Z,12.62
2019-04-21T06:28:47.012Z,12.65
2019-04-21T06:29:45.201Z,12.67
2019-04-21T06:30:56.201Z,12.78
2019-04-21T06:32:52.188Z,12.86
2019-04-21T06:35:04.256Z,13.00
2019-04-21T06:36:07.810Z,13.11
2019-04-21T06:36:45.177Z,12.87
2019-04-21T06:38:53.864Z,12.98
2019-04-21T06:39:54.258Z,13.04
2019-04-21T06:40:42.511Z,13.08
2019-04-21T06:41:39.777Z,13.00
2019-04-21T06:42:40.325Z,13.08
2019-04-21T06:43:48.537Z,13.18
2019-04-21T06:44:49.121Z,13.25
2019-04-21T06:45:50.690Z,13.39
2019-04-21T06:46:43.713Z,13.39
2019-04-21T06:47:45.130Z,13.50
2019-04-21T06:48:44.367Z,13.50
2019-04-21T06:49:41.255Z,13.62
2019-04-21T06:50:46.110Z,13.63
2019-04-21T06:51:38.932Z,13.68
2019-04-21T06:52:51.966Z,13.71
2019-04-21T06:53:44.382Z,13.70
2019-04-21T06:54:45.626Z,13.83
2019-04-21T06:55:38.000Z,13.77
2019-04-21T06:56:47.890Z,13.71
2019-04-21T06:57:47.947Z,13.70
2019-04-21T06:58:35.589Z,13.89
2019-04-21T06:59:38.385Z,13.85
2019-04-21T07:00:37.332Z,13.89
2019-04-21T07:01:43.811Z,13.95
2019-04-21T07:03:42.489Z,14.03
2019-04-21T07:04:46.483Z,13.96
2019-04-21T07:05:48.445Z,13.93
2019-04-21T07:06:48.208Z,13.93
2019-04-21T07:07:52.115Z,13.99
2019-04-21T07:08:51.476Z,14.04
2019-04-21T07:09:36.410Z,14.15
2019-04-21T07:10:37.062Z,14.14
2019-04-21T07:11:39.368Z,14.25
2019-04-21T07:12:39.364Z,14.33
2019-04-21T07:13:41.561Z,14.41
2019-04-21T07:15:43.627Z,14.48
2019-04-21T07:16:44.949Z,14.48
2019-04-21T07:17:43.242Z,14.50
2019-04-21T07:18:42.910Z,14.50
2019-04-21T07:19:41.267Z,14.55
2019-04-21T07:20:42.368Z,14.69
2019-04-21T07:21:43.014Z,14.69
2019-04-21T07:22:44.680Z,14.55
2019-04-21T07:23:45.878Z,14.72
2019-04-21T07:25:00.414Z,14.77
2019-04-21T07:25:40.851Z,14.78
2019-04-21T07:26:44.534Z,14.96
2019-04-21T07:27:43.079Z,14.97
2019-04-21T07:28:45.515Z,14.94
2019-04-21T07:29:55.115Z,14.97
2019-04-21T07:30:48.699Z,15.02
2019-04-21T07:31:52.135Z,15.03
2019-04-21T07:32:40.152Z,15.06
2019-04-21T07:34:38.276Z,15.17
2019-04-21T07:35:41.191Z,15.14
2019-04-21T07:36:47.790Z,15.10
2019-04-21T07:37:46.211Z,15.11
2019-04-21T07:38:41.179Z,15.24
2019-04-21T07:39:40.299Z,15.28
2019-04-21T07:40:33.728Z,15.33
2019-04-21T07:41:35.062Z,15.40
2019-04-21T07:42:36.954Z,15.44
2019-04-21T07:43:33.233Z,15.59
2019-04-21T07:44:34.939Z,15.52
2019-04-21T07:45:30.160Z,15.59
2019-04-21T07:46:30.040Z,15.61
2019-04-21T07:47:39.607Z,15.72
2019-04-21T07:48:38.103Z,15.72
2019-04-21T07:49:40.183Z,15.62
2019-04-21T07:50:38.189Z,15.65
2019-04-21T07:51:42.311Z,15.70
2019-04-21T07:52:42.052Z,15.73
2019-04-21T07:53:40.661Z,15.82
2019-04-21T07:54:47.683Z,15.84
2019-04-21T07:56:26.688Z,15.88
2019-04-21T07:57:36.746Z,15.90
2019-04-21T07:58:47.644Z,15.88
2019-04-21T07:59:48.001Z,15.84
2019-04-21T08:00:45.369Z,15.82
2019-04-21T08:01:35.689Z,15.76
2019-04-21T08:02:46.307Z,15.86
2019-04-21T08:03:43.860Z,15.88
2019-04-21T08:04:55.837Z,15.88
2019-04-21T08:05:43.762Z,15.94
2019-04-21T08:06:40.547Z,15.91
2019-04-21T08:07:49.240Z,15.91
2019-04-21T08:08:34.495Z,15.86
2019-04-21T08:09:45.261Z,16.01
2019-04-21T08:10:33.635Z,16.05
2019-04-21T08:11:38.338Z,16.09
2019-04-21T08:12:36.232Z,16.17
2019-04-21T08:13:40.105Z,16.15
2019-04-21T08:14:38.345Z,16.20
2019-04-21T08:15:40.243Z,16.20
2019-04-21T08:16:37.251Z,16.08
2019-04-21T08:17:36.729Z,16.12
2019-04-21T08:18:39.947Z,16.15
2019-04-21T08:19:39.885Z,16.21
2019-04-21T08:20:38.724Z,16.29
2019-04-21T08:21:40.915Z,16.39
2019-04-21T08:22:44.821Z,16.39
2019-04-21T08:23:39.932Z,16.53
2019-04-21T08:24:46.866Z,16.50
2019-04-21T08:25:51.009Z,16.54
2019-04-21T08:26:46.961Z,16.43
2019-04-21T08:27:46.449Z,16.61
2019-04-21T08:28:42.722Z,16.66
2019-04-21T08:29:42.188Z,16.65
2019-04-21T08:30:36.235Z,16.68
2019-04-21T08:31:50.023Z,16.79
2019-04-21T08:32:51.773Z,16.79
2019-04-21T08:33:46.283Z,16.86
2019-04-21T08:34:49.349Z,16.94
2019-04-21T08:36:35.538Z,16.90
2019-04-21T08:37:39.525Z,17.09
2019-04-21T08:38:42.624Z,17.11
2019-04-21T08:39:49.657Z,17.05
2019-04-21T08:41:31.365Z,17.15
2019-04-21T08:42:38.286Z,17.24
2019-04-21T08:43:42.641Z,17.22
2019-04-21T08:44:40.094Z,17.29
2019-04-21T08:45:44.992Z,17.29
2019-04-21T08:46:39.876Z,17.41
2019-04-21T08:47:40.224Z,17.46
2019-04-21T08:48:37.991Z,17.56
2019-04-21T08:49:39.190Z,17.57
2019-04-21T08:50:38.930Z,17.57
2019-04-21T08:53:42.980Z,17.68
2019-04-21T08:54:40.964Z,17.67
2019-04-21T08:55:45.053Z,17.64
2019-04-21T08:56:37.202Z,17.59
2019-04-21T08:57:46.414Z,17.70
2019-04-21T08:58:42.554Z,17.76
2019-04-21T08:59:36.341Z,17.85
2019-04-21T09:00:38.448Z,17.82
2019-04-21T09:01:38.581Z,17.98
2019-04-21T09:02:41.098Z,17.95
2019-04-21T09:03:36.115Z,18.07
2019-04-21T09:04:33.506Z,18.07
2019-04-21T09:05:37.828Z,18.08
2019-04-21T09:06:54.159Z,18.15
2019-04-21T09:07:41.683Z,18.19
2019-04-21T09:08:39.273Z,18.31
2019-04-21T09:09:35.268Z,18.25
2019-04-21T09:10:35.623Z,18.29
2019-04-21T09:12:34.633Z,18.31
2019-04-21T09:13:37.117Z,18.35
2019-04-21T09:14:36.563Z,18.49
2019-04-21T09:15:34.983Z,18.52
2019-04-21T09:16:31.148Z,18.62
2019-04-21T09:17:31.848Z,18.74
2019-04-21T09:18:28.403Z,18.62
2019-04-21T09:19:47.066Z,18.59
2019-04-21T09:20:40.155Z,18.73
2019-04-21T09:21:42.299Z,18.77
2019-04-21T09:22:37.820Z,18.86
2019-04-21T09:23:36.479Z,18.90
2019-04-21T09:24:35.162Z,18.86
2019-04-21T09:25:40.605Z,18.88
2019-04-21T09:26:36.984Z,18.78
2019-04-21T09:27:35.662Z,18.80
2019-04-21T09:28:33.126Z,18.81
2019-04-21T09:29:26.492Z,18.88
2019-04-21T09:30:17.470Z,18.83
2019-04-21T09:31:23.952Z,18.90
2019-04-21T09:32:21.711Z,18.90
2019-04-21T09:33:16.211Z,18.99
2019-04-21T09:34:23.886Z,19.11
2019-04-21T09:35:18.621Z,19.11
2019-04-21T09:36:21.171Z,19.14
2019-04-21T09:37:28.811Z,19.16
2019-04-21T09:38:27.689Z,19.16
2019-04-21T09:39:20.377Z,19.21
2019-04-21T09:40:27.432Z,19.19
2019-04-21T09:41:20.369Z,19.12
2019-04-21T09:42:18.426Z,19.21
2019-04-21T09:43:27.299Z,19.18
2019-04-21T09:44:24.920Z,19.09
2019-04-21T09:45:17.617Z,19.14
2019-04-21T09:46:16.253Z,19.12
2019-04-21T09:47:21.225Z,19.15
2019-04-21T09:48:19.508Z,19.19
2019-04-21T09:49:22.074Z,19.21
2019-04-21T09:50:17.341Z,19.18
2019-04-21T09:51:16.012Z,19.29
2019-04-21T09:52:21.046Z,19.26
2019-04-21T09:53:24.869Z,19.24
2019-04-21T09:54:22.889Z,19.41
2019-04-21T09:55:20.680Z,19.49
2019-04-21T09:56:19.572Z,19.56
2019-04-21T09:57:27.603Z,19.67
2019-04-21T09:58:23.982Z,19.74
2019-04-21T09:59:23.665Z,19.82
2019-04-21T10:00:21.085Z,19.79
2019-04-21T10:01:22.803Z,19.76
2019-04-21T10:02:25.314Z,19.76
2019-04-21T10:03:18.005Z,19.81
2019-04-21T10:04:16.448Z,19.82
2019-04-21T10:05:16.887Z,19.77
2019-04-21T10:06:17.447Z,19.77
2019-04-21T10:07:25.619Z,19.62
2019-04-21T10:08:16.878Z,19.77
2019-04-21T10:09:19.395Z,19.69
2019-04-21T10:10:17.138Z,19.69
2019-04-21T10:11:16.506Z,19.62
2019-04-21T10:12:16.259Z,19.64
2019-04-21T10:13:17.048Z,19.64
2019-04-21T10:14:15.801Z,19.66
2019-04-21T10:15:16.516Z,19.55
2019-04-21T10:16:15.733Z,19.66
2019-04-21T10:17:15.717Z,19.62
2019-04-21T10:18:15.714Z,19.73
2019-04-21T10:19:15.721Z,19.79
2019-04-21T10:20:17.040Z,19.76
2019-04-21T10:21:15.706Z,19.73
2019-04-21T10:22:17.040Z,19.58
2019-04-21T10:23:15.717Z,19.62
2019-04-21T10:24:15.987Z,19.62
2019-04-21T10:25:16.638Z,19.63
2019-04-21T10:26:16.802Z,19.67
2019-04-21T10:27:16.980Z,19.76
2019-04-21T10:28:16.761Z,19.71
2019-04-21T10:29:22.739Z,19.79
2019-04-21T10:30:16.582Z,19.77
2019-04-21T10:31:16.726Z,19.82
2019-04-21T10:32:18.667Z,19.58
2019-04-21T10:33:16.734Z,19.58
2019-04-21T10:34:16.895Z,19.63
2019-04-21T10:35:18.156Z,19.64
2019-04-21T10:36:15.570Z,19.76
2019-04-21T10:37:16.646Z,19.88
2019-04-21T10:38:26.364Z,19.81
2019-04-21T10:39:15.777Z,19.79
2019-04-21T10:40:15.872Z,19.82
2019-04-21T10:41:15.453Z,19.77
2019-04-21T10:42:15.573Z,19.82
2019-04-21T10:43:19.070Z,19.84
2019-04-21T10:44:16.891Z,19.85
2019-04-21T10:45:16.878Z,19.89
2019-04-21T10:46:15.409Z,19.91
2019-04-21T10:47:16.559Z,19.94
2019-04-21T10:48:16.762Z,19.96
2019-04-21T10:49:15.362Z,19.85
2019-04-21T10:50:16.277Z,19.85
2019-04-21T10:51:15.413Z,19.81
2019-04-21T10:52:15.350Z,19.71
2019-04-21T10:53:16.607Z,19.73
2019-04-21T10:54:15.830Z,19.88
2019-04-21T10:55:32.032Z,19.79
2019-04-21T10:56:25.126Z,19.84
2019-04-21T10:57:16.640Z,19.85
2019-04-21T10:58:16.219Z,19.91
2019-04-21T10:59:16.235Z,19.99
2019-04-21T11:00:16.033Z,19.96
2019-04-21T11:01:15.263Z,19.92
2019-04-21T11:02:15.223Z,19.95
2019-04-21T11:03:15.220Z,19.99
2019-04-21T11:04:21.843Z,19.92
2019-04-21T11:05:16.480Z,19.99
2019-04-21T11:06:16.762Z,19.99
2019-04-21T11:07:18.124Z,20.04
2019-04-21T11:08:22.762Z,19.99
2019-04-21T11:09:16.145Z,19.99
2019-04-21T11:10:16.166Z,20.02
2019-04-21T11:11:16.249Z,20.00
2019-04-21T11:12:15.567Z,20.03
2019-04-21T11:13:15.097Z,20.07
2019-04-21T11:14:15.479Z,20.00
2019-04-21T11:15:15.092Z,20.04
2019-04-21T11:16:15.145Z,19.96
2019-04-21T11:17:16.352Z,20.09
2019-04-21T11:18:15.710Z,20.21
2019-04-21T11:19:15.940Z,20.10
2019-04-21T11:20:15.104Z,20.19
2019-04-21T11:21:15.054Z,20.22
2019-04-21T11:22:15.050Z,20.19
2019-04-21T11:23:16.659Z,20.24
2019-04-21T11:24:16.452Z,20.34
2019-04-21T11:25:15.813Z,20.37
2019-04-21T11:26:16.022Z,20.37
2019-04-21T11:27:15.078Z,20.39
2019-04-21T11:28:14.984Z,20.39
2019-04-21T11:29:15.025Z,20.44
2019-04-21T11:30:15.741Z,20.39
2019-04-21T11:31:15.418Z,20.43
2019-04-21T11:32:15.123Z,20.52
2019-04-21T11:33:15.396Z,20.58
2019-04-21T11:34:15.460Z,20.39
2019-04-21T11:35:15.107Z,20.44
2019-04-21T11:36:15.447Z,20.44
2019-04-21T11:37:14.854Z,20.55
2019-04-21T11:38:19.892Z,20.62
2019-04-21T11:39:28.474Z,20.62
2019-04-21T11:40:18.011Z,20.63
2019-04-21T11:41:16.016Z,20.74
2019-04-21T11:42:15.564Z,20.81
2019-04-21T11:43:15.749Z,20.63
2019-04-21T11:44:16.198Z,20.65
2019-04-21T11:45:14.755Z,20.52
2019-04-21T11:46:16.148Z,20.56
2019-04-21T11:47:14.720Z,20.52
2019-04-21T11:48:14.717Z,20.63
2019-04-21T11:49:15.827Z,20.56
2019-04-21T11:50:14.994Z,20.51
2019-04-21T11:51:15.232Z,20.47
2019-04-21T11:52:14.684Z,20.58
2019-04-21T11:53:14.838Z,20.41
2019-04-21T11:54:15.058Z,20.41
2019-04-21T11:55:14.679Z,20.40
2019-04-21T11:56:14.760Z,20.52
2019-04-21T11:57:20.977Z,20.50
2019-04-21T11:58:15.920Z,20.58
2019-04-21T11:59:15.538Z,20.58
2019-04-21T12:00:15.745Z,20.60
2019-04-21T12:01:15.764Z,20.59
2019-04-21T12:02:15.220Z,20.62
2019-04-21T12:03:15.720Z,20.69
2019-04-21T12:04:16.105Z,20.80
2019-04-21T12:05:15.150Z,20.87
2019-04-21T12:06:15.445Z,20.84
2019-04-21T12:07:15.446Z,20.85
2019-04-21T12:08:24.495Z,20.90
2019-04-21T12:09:14.752Z,20.87
2019-04-21T12:10:15.538Z,20.87
2019-04-21T12:11:15.870Z,20.67
2019-04-21T12:12:14.970Z,20.58
2019-04-21T12:13:14.436Z,20.56
2019-04-21T12:14:14.485Z,20.43
2019-04-21T12:15:14.415Z,20.50
2019-04-21T12:16:14.963Z,20.43
2019-04-21T12:17:14.447Z,20.41
2019-04-21T12:18:15.525Z,20.36
2019-04-21T12:19:14.641Z,20.39
2019-04-21T12:20:14.798Z,20.41
2019-04-21T12:21:15.620Z,20.41
2019-04-21T12:22:21.591Z,20.43
2019-04-21T12:23:14.494Z,20.51
2019-04-21T12:24:15.217Z,20.47
2019-04-21T12:25:15.424Z,20.44
2019-04-21T12:26:14.303Z,20.67
2019-04-21T12:27:14.326Z,20.70
2019-04-21T12:28:14.366Z,20.58
2019-04-21T12:29:14.640Z,20.65
2019-04-21T12:30:15.533Z,20.50
2019-04-21T12:31:14.252Z,20.62
2019-04-21T12:32:14.256Z,20.65
2019-04-21T12:33:14.280Z,20.67
2019-04-21T12:34:14.225Z,20.69
2019-04-21T12:35:15.655Z,20.72
2019-04-21T12:36:14.232Z,20.74
2019-04-21T12:37:15.086Z,20.63
2019-04-21T12:38:14.197Z,20.63
2019-04-21T12:39:14.896Z,20.66
2019-04-21T12:40:14.755Z,20.65
2019-04-21T12:41:14.880Z,20.70
2019-04-21T12:42:14.507Z,20.74
2019-04-21T12:43:14.719Z,20.74
2019-04-21T12:44:15.039Z,20.70
2019-04-21T12:45:15.201Z,20.82
2019-04-21T12:46:14.132Z,20.80
2019-04-21T12:47:14.293Z,20.69
2019-04-21T12:48:14.108Z,20.74
2019-04-21T12:49:14.053Z,20.67
2019-04-21T12:50:14.848Z,20.66
2019-04-21T12:51:15.456Z,20.69
2019-04-21T12:52:14.020Z,20.69
2019-04-21T12:53:15.676Z,20.66
2019-04-21T12:54:15.341Z,20.72
2019-04-21T12:55:13.992Z,20.78
2019-04-21T12:56:13.974Z,20.80
2019-04-21T12:57:13.972Z,20.72
2019-04-21T12:58:15.188Z,20.65
2019-04-21T12:59:14.929Z,20.67
2019-04-21T13:00:15.142Z,20.65
2019-04-21T13:01:14.685Z,20.70
2019-04-21T13:02:13.939Z,20.69
2019-04-21T13:03:14.179Z,20.67
2019-04-21T13:04:13.891Z,20.63
2019-04-21T13:05:13.875Z,20.66
2019-04-21T13:06:14.032Z,20.65
2019-04-21T13:07:15.289Z,20.66
2019-04-21T13:08:13.877Z,20.66
2019-04-21T13:09:16.748Z,20.77
2019-04-21T13:10:16.120Z,20.75
2019-04-21T13:11:14.936Z,20.75
2019-04-21T13:12:15.138Z,20.78
2019-04-21T13:13:14.378Z,20.74
2019-04-21T13:14:13.817Z,20.77
2019-04-21T13:15:13.775Z,20.84
2019-04-21T13:16:13.844Z,20.87
2019-04-21T13:17:13.745Z,20.80
2019-04-21T13:18:14.367Z,20.78
2019-04-21T13:19:13.720Z,20.77
2019-04-21T13:20:14.890Z,20.66
2019-04-21T13:21:14.073Z,20.67
2019-04-21T13:22:14.134Z,20.69
2019-04-21T13:23:13.907Z,20.75
2019-04-21T13:24:13.820Z,20.72
2019-04-21T13:25:14.054Z,20.67
2019-04-21T13:26:14.975Z,20.78
2019-04-21T13:27:13.638Z,20.75
2019-04-21T13:28:14.687Z,20.70
2019-04-21T13:29:14.571Z,20.66
2019-04-21T13:30:14.661Z,20.50
2019-04-21T13:31:14.037Z,20.48
2019-04-21T13:32:14.383Z,20.48
2019-04-21T13:33:13.574Z,20.47
2019-04-21T13:34:13.992Z,20.47
2019-04-21T13:35:14.952Z,20.55
2019-04-21T13:36:13.954Z,20.52
2019-04-21T13:37:13.577Z,20.65
2019-04-21T13:38:24.502Z,20.65
2019-04-21T13:39:48.799Z,20.69
2019-04-21T13:40:34.440Z,20.75
2019-04-21T13:41:29.641Z,20.65
2019-04-21T13:42:24.039Z,20.75
2019-04-21T13:43:14.847Z,20.85
2019-04-21T13:44:15.320Z,20.81
2019-04-21T13:45:14.054Z,20.84
2019-04-21T13:46:13.437Z,20.77
2019-04-21T13:47:14.540Z,20.70
2019-04-21T13:48:14.789Z,20.75
2019-04-21T13:49:13.744Z,20.75
2019-04-21T13:50:13.448Z,20.70
2019-04-21T13:51:13.559Z,20.78
2019-04-21T13:52:13.371Z,20.84
2019-04-21T13:53:14.526Z,20.80
2019-04-21T13:54:13.908Z,20.80
2019-04-21T13:55:13.898Z,20.81
2019-04-21T13:56:14.296Z,20.78
2019-04-21T13:57:14.414Z,20.77
2019-04-21T13:58:14.498Z,20.81
2019-04-21T13:59:14.091Z,20.72
2019-04-21T14:00:13.418Z,20.77
2019-04-21T14:01:13.885Z,20.77
2019-04-21T14:02:13.272Z,20.69
2019-04-21T14:03:14.555Z,20.77
2019-04-21T14:04:13.659Z,20.74
2019-04-21T14:05:15.260Z,20.81
2019-04-21T14:06:14.130Z,20.77
2019-04-21T14:07:14.325Z,20.69
2019-04-21T14:08:13.507Z,20.66